createdAt,value
2019-05-05T00:01:46.665Z,89.70
2019-05-05T00:04:48.069Z,89.80
2019-05-05T00:09:52.426Z,88.50
2019-05-05T00:12:56.722Z,88.60
2019-05-05T00:15:45.042Z,88.90
2019-05-05T00:18:16.504Z,88.70
2019-05-05T00:20:46.620Z,88.70
2019-05-05T00:23:17.051Z,88.70
2019-05-05T00:25:47.171Z,89.00
2019-05-05T00:28:17.242Z,90.10
2019-05-05T00:30:47.703Z,88.80
2019-05-05T00:35:47.512Z,88.20
2019-05-05T00:38:18.051Z,88.10
2019-05-05T00:40:49.502Z,88.40
2019-05-05T00:43:19.579Z,88.30
2019-05-05T00:45:51.625Z,88.50
2019-05-05T00:53:29.355Z,88.00
2019-05-05T00:55:59.390Z,87.90
2019-05-05T00:58:31.313Z,88.50
2019-05-05T01:01:26.381Z,88.70
2019-05-05T01:03:56.766Z,88.90
2019-05-05T01:08:58.639Z,88.80
2019-05-05T01:11:29.161Z,90.10
2019-05-05T01:16:28.770Z,90.30
2019-05-05T01:19:00.009Z,90.30
2019-05-05T01:21:30.205Z,90.20
2019-05-05T01:24:00.531Z,90.50
2019-05-05T01:26:30.649Z,90.30
2019-05-05T01:29:02.285Z,90.40
2019-05-05T01:34:24.432Z,90.20
2019-05-05T01:37:01.200Z,90.20
2019-05-05T01:42:20.080Z,90.00
2019-05-05T01:44:50.863Z,90.10
2019-05-05T01:47:21.267Z,90.20
2019-05-05T01:49:51.403Z,90.40
2019-05-05T01:52:21.556Z,90.50
2019-05-05T01:54:52.126Z,90.50
2019-05-05T01:57:22.451Z,90.80
2019-05-05T01:59:52.634Z,90.60
2019-05-05T02:02:24.926Z,90.60
2019-05-05T02:04:55.888Z,90.60
2019-05-05T02:07:26.033Z,90.70
2019-05-05T02:09:56.635Z,90.90
2019-05-05T02:12:27.790Z,91.00
2019-05-05T02:14:57.879Z,91.00
2019-05-05T02:17:28.275Z,91.00
2019-05-05T02:19:58.631Z,90.90
2019-05-05T02:22:28.764Z,90.80
2019-05-05T02:24:59.151Z,90.60
2019-05-05T02:27:29.562Z,90.70
2019-05-05T02:30:21.435Z,90.80
2019-05-05T02:32:55.893Z,90.80
2019-05-05T02:35:26.246Z,90.70
2019-05-05T02:37:56.316Z,90.80
2019-05-05T02:40:27.368Z,90.80
2019-05-05T02:42:57.801Z,90.70
2019-05-05T02:45:51.079Z,91.10
2019-05-05T02:48:24.791Z,90.80
2019-05-05T02:53:34.231Z,90.60
2019-05-05T02:56:06.979Z,90.60
2019-05-05T02:58:38.649Z,90.90
2019-05-05T03:04:01.202Z,90.90
2019-05-05T03:06:31.639Z,91.00
2019-05-05T03:09:04.458Z,90.90
2019-05-05T03:11:36.564Z,90.90
2019-05-05T03:14:09.066Z,90.80
2019-05-05T03:16:40.239Z,90.90
2019-05-05T03:19:14.110Z,90.70
2019-05-05T03:21:44.272Z,90.70
2019-05-05T03:24:16.062Z,90.80
2019-05-05T03:26:47.005Z,90.90
2019-05-05T03:29:21.233Z,90.80
2019-05-05T03:31:51.919Z,90.70
2019-05-05T03:34:24.575Z,90.60
2019-05-05T03:36:56.833Z,90.60
2019-05-05T03:39:29.741Z,90.60
2019-05-05T03:42:18.243Z,90.60
2019-05-05T03:44:54.506Z,91.00
2019-05-05T03:47:26.577Z,91.00
2019-05-05T03:49:57.233Z,90.50
2019-05-05T03:52:29.823Z,90.50
2019-05-05T03:55:00.387Z,90.50
2019-05-05T03:57:31.032Z,90.30
2019-05-05T04:00:04.134Z,90.60
2019-05-05T04:05:31.113Z,90.80
2019-05-05T04:08:03.806Z,90.80
2019-05-05T04:10:33.995Z,90.90
2019-05-05T04:13:07.386Z,90.80
2019-05-05T04:15:39.042Z,91.00
2019-05-05T04:18:29.468Z,91.10
2019-05-05T04:20:59.610Z,91.00
2019-05-05T04:23:30.925Z,91.00
2019-05-05T04:26:01.139Z,91.10
2019-05-05T04:28:31.225Z,91.20
2019-05-05T04:31:01.362Z,90.30
2019-05-05T04:33:31.774Z,91.50
2019-05-05T04:36:03.880Z,91.20
2019-05-05T04:38:35.406Z,91.20
2019-05-05T04:41:06.988Z,91.10
2019-05-05T04:43:37.838Z,91.00
2019-05-05T04:51:19.492Z,91.10
2019-05-05T04:54:26.485Z,91.00
2019-05-05T04:56:56.997Z,91.00
2019-05-05T04:59:28.270Z,91.00
2019-05-05T05:04:49.309Z,90.70
2019-05-05T05:07:19.995Z,90.80
2019-05-05T05:09:53.970Z,90.50
2019-05-05T05:14:55.136Z,90.40
2019-05-05T05:17:33.839Z,90.70
2019-05-05T05:20:04.444Z,90.80
2019-05-05T05:22:34.827Z,90.80
2019-05-05T05:27:35.240Z,90.50
2019-05-05T05:30:05.713Z,90.70
2019-05-05T05:32:35.886Z,90.30
2019-05-05T05:35:06.244Z,90.20
2019-05-05T05:37:37.504Z,90.20
2019-05-05T05:40:14.489Z,90.00
2019-05-05T05:42:47.241Z,90.10
2019-05-05T05:45:45.615Z,89.70
2019-05-05T05:48:20.794Z,90.10
2019-05-05T05:51:04.227Z,90.00
2019-05-05T05:53:35.011Z,89.60
2019-05-05T05:56:05.116Z,89.80
2019-05-05T05:58:35.236Z,89.40
2019-05-05T06:03:37.480Z,88.80
2019-05-05T06:06:07.554Z,88.50
2019-05-05T06:11:08.862Z,89.10
2019-05-05T06:13:38.980Z,89.80
2019-05-05T06:16:09.073Z,89.70
2019-05-05T06:21:09.352Z,89.50
2019-05-05T06:23:39.761Z,90.00
2019-05-05T06:26:10.869Z,89.00
2019-05-05T06:31:13.877Z,88.50
2019-05-05T06:33:43.887Z,88.00
2019-05-05T06:36:14.287Z,87.50
2019-05-05T06:38:44.632Z,87.60
2019-05-05T06:41:24.569Z,87.50
2019-05-05T06:44:24.625Z,87.50
2019-05-05T06:47:00.666Z,87.10
2019-05-05T06:49:31.290Z,87.40
2019-05-05T06:52:03.886Z,87.20
2019-05-05T06:54:34.859Z,85.70
2019-05-05T06:57:05.357Z,84.20
2019-05-05T07:02:05.517Z,85.00
2019-05-05T07:04:36.098Z,85.40
2019-05-05T07:07:07.046Z,85.70
2019-05-05T07:12:08.162Z,84.10
2019-05-05T07:14:38.227Z,85.20
2019-05-05T07:17:08.450Z,83.90
2019-05-05T07:19:38.648Z,84.10
2019-05-05T07:22:08.810Z,84.20
2019-05-05T07:29:39.804Z,83.80
2019-05-05T07:32:10.940Z,84.10
2019-05-05T07:34:55.212Z,83.20
2019-05-05T07:37:27.014Z,82.00
2019-05-05T07:39:57.209Z,81.90
2019-05-05T07:42:27.397Z,82.20
2019-05-05T07:44:57.999Z,82.80
2019-05-05T07:47:28.427Z,82.20
2019-05-05T07:49:58.770Z,80.90
2019-05-05T07:52:28.808Z,79.90
2019-05-05T07:54:59.032Z,79.80
2019-05-05T07:57:29.689Z,79.70
2019-05-05T07:59:59.734Z,79.50
2019-05-05T08:02:30.635Z,78.80
2019-05-05T08:05:00.925Z,78.00
2019-05-05T08:07:31.054Z,77.90
2019-05-05T08:10:01.082Z,78.00
2019-05-05T08:12:31.556Z,77.10
2019-05-05T08:15:04.166Z,76.50
2019-05-05T08:17:51.455Z,75.00
2019-05-05T08:20:40.712Z,76.00
2019-05-05T08:23:30.136Z,74.60
2019-05-05T08:26:19.764Z,75.30
2019-05-05T08:28:54.750Z,76.20
2019-05-05T08:31:44.349Z,74.60
2019-05-05T08:39:17.733Z,75.90
2019-05-05T08:41:50.292Z,75.20
2019-05-05T08:44:23.650Z,75.10
2019-05-05T08:46:56.131Z,74.80
2019-05-05T08:51:58.524Z,75.30
2019-05-05T08:54:29.061Z,75.50
2019-05-05T08:56:59.654Z,73.50
2019-05-05T08:59:33.548Z,74.10
2019-05-05T09:02:04.481Z,73.80
2019-05-05T09:04:35.965Z,73.00
2019-05-05T09:07:06.225Z,72.50
2019-05-05T09:09:36.915Z,71.60
2019-05-05T09:14:36.567Z,69.70
2019-05-05T09:17:06.774Z,68.70
2019-05-05T09:19:36.831Z,69.60
2019-05-05T09:22:08.780Z,67.80
2019-05-05T09:24:55.055Z,68.10
2019-05-05T09:27:37.153Z,65.60
2019-05-05T09:30:08.063Z,67.40
2019-05-05T09:32:40.417Z,67.20
2019-05-05T09:35:13.880Z,66.30
2019-05-05T09:37:44.391Z,65.90
2019-05-05T09:42:48.260Z,67.00
2019-05-05T09:45:18.741Z,68.50
2019-05-05T09:47:49.232Z,68.10
2019-05-05T09:50:19.717Z,67.90
2019-05-05T09:52:49.896Z,66.20
2019-05-05T09:55:20.392Z,65.90
2019-05-05T09:57:50.655Z,65.20
2019-05-05T10:00:21.509Z,65.40
2019-05-05T10:02:51.825Z,67.40
2019-05-05T10:05:23.631Z,65.70
2019-05-05T10:07:54.472Z,65.40
2019-05-05T10:10:24.707Z,65.80
2019-05-05T10:12:55.115Z,65.70
2019-05-05T10:15:25.508Z,67.60
2019-05-05T10:17:56.091Z,68.10
2019-05-05T10:20:26.690Z,67.90
2019-05-05T10:22:57.486Z,67.40
2019-05-05T10:25:37.918Z,67.20
2019-05-05T10:28:08.183Z,67.10
2019-05-05T10:30:38.359Z,68.10
2019-05-05T10:33:08.480Z,68.40
2019-05-05T10:35:38.962Z,71.30
2019-05-05T10:38:10.051Z,70.70
2019-05-05T10:43:10.391Z,66.20
2019-05-05T10:45:40.924Z,65.70
2019-05-05T10:48:11.307Z,65.70
2019-05-05T10:50:44.265Z,65.20
2019-05-05T10:53:14.226Z,64.00
2019-05-05T10:55:45.124Z,67.40
2019-05-05T10:58:15.883Z,70.40
2019-05-05T11:00:56.948Z,73.40
2019-05-05T11:03:27.447Z,73.60
2019-05-05T11:08:30.666Z,79.70
2019-05-05T11:13:30.615Z,78.30
2019-05-05T11:16:01.334Z,79.60
2019-05-05T11:18:31.611Z,80.00
2019-05-05T11:21:03.914Z,78.50
2019-05-05T11:23:35.054Z,76.50
2019-05-05T11:26:06.645Z,78.30
2019-05-05T11:28:36.982Z,77.40
2019-05-05T11:31:08.024Z,76.60
2019-05-05T11:33:55.956Z,76.20
2019-05-05T11:36:30.517Z,76.40
2019-05-05T11:43:59.964Z,71.50
2019-05-05T11:46:30.473Z,73.00
2019-05-05T11:49:00.666Z,69.20
2019-05-05T11:54:00.546Z,65.70
2019-05-05T11:56:31.170Z,63.30
2019-05-05T11:59:01.392Z,63.20
2019-05-05T12:01:31.817Z,63.60
2019-05-05T12:04:04.174Z,61.80
2019-05-05T12:06:35.131Z,61.10
2019-05-05T12:09:09.731Z,63.00
2019-05-05T12:11:39.874Z,61.20
2019-05-05T12:14:11.609Z,61.50
2019-05-05T12:16:43.793Z,61.80
2019-05-05T12:19:13.858Z,65.70
2019-05-05T12:21:44.311Z,64.00
2019-05-05T12:24:19.981Z,64.30
2019-05-05T12:27:03.694Z,65.50
2019-05-05T12:29:43.645Z,62.90
2019-05-05T12:32:14.883Z,60.90
2019-05-05T12:34:45.174Z,59.60
2019-05-05T12:37:16.321Z,58.90
2019-05-05T12:39:46.945Z,59.20
2019-05-05T12:45:05.033Z,53.90
2019-05-05T12:47:54.208Z,53.60
2019-05-05T12:50:24.679Z,54.00
2019-05-05T12:52:55.376Z,55.10
2019-05-05T12:55:39.107Z,55.30
2019-05-05T12:57:58.746Z,53.70
2019-05-05T13:00:29.219Z,53.70
2019-05-05T13:02:59.605Z,54.20
2019-05-05T13:05:29.826Z,54.40
2019-05-05T13:08:00.319Z,54.30
2019-05-05T13:10:33.683Z,54.30
2019-05-05T13:13:05.061Z,54.70
2019-05-05T13:15:35.742Z,54.90
2019-05-05T13:20:44.386Z,52.40
2019-05-05T13:23:34.045Z,52.90
2019-05-05T13:26:14.538Z,52.30
2019-05-05T13:28:44.963Z,51.10
2019-05-05T13:31:16.077Z,51.50
2019-05-05T13:33:46.236Z,51.10
2019-05-05T13:36:16.270Z,51.20
2019-05-05T13:38:46.606Z,50.90
2019-05-05T13:41:17.317Z,52.60
2019-05-05T13:43:47.541Z,50.10
2019-05-05T13:46:24.854Z,50.80
2019-05-05T13:48:59.054Z,51.10
2019-05-05T13:54:02.392Z,46.90
2019-05-05T13:56:33.590Z,46.60
2019-05-05T13:59:04.451Z,47.00
2019-05-05T14:01:34.925Z,47.80
2019-05-05T14:06:37.934Z,49.50
2019-05-05T14:09:08.934Z,50.70
2019-05-05T14:11:40.773Z,51.10
2019-05-05T14:14:13.787Z,51.50
2019-05-05T14:16:44.646Z,51.90
2019-05-05T14:19:15.854Z,54.30
2019-05-05T14:21:46.024Z,51.80
2019-05-05T14:24:54.468Z,51.90
2019-05-05T14:30:15.816Z,48.70
2019-05-05T14:32:46.321Z,47.60
2019-05-05T14:35:23.539Z,48.20
2019-05-05T14:37:56.501Z,46.90
2019-05-05T14:40:27.008Z,47.10
2019-05-05T14:42:57.254Z,47.30
2019-05-05T14:45:28.505Z,47.90
2019-05-05T14:48:00.794Z,50.70
2019-05-05T14:50:31.284Z,50.60
2019-05-05T14:53:01.411Z,50.80
2019-05-05T14:55:33.619Z,51.00
2019-05-05T14:58:04.143Z,50.80
2019-05-05T15:00:34.396Z,51.70
2019-05-05T15:03:04.957Z,51.90
2019-05-05T15:05:40.709Z,52.40
2019-05-05T15:08:43.899Z,52.50
2019-05-05T15:14:04.920Z,51.50
2019-05-05T15:16:34.687Z,50.90
2019-05-05T15:19:05.176Z,50.00
2019-05-05T15:21:35.221Z,50.20
2019-05-05T15:24:05.542Z,49.40
2019-05-05T15:26:48.846Z,49.90
2019-05-05T15:29:08.764Z,50.70
2019-05-05T15:31:41.076Z,51.10
2019-05-05T15:34:11.430Z,51.30
2019-05-05T15:36:43.974Z,51.20
2019-05-05T15:39:14.283Z,51.10
2019-05-05T15:44:14.913Z,49.70
2019-05-05T15:46:45.835Z,49.00
2019-05-05T15:49:17.956Z,47.80
2019-05-05T15:51:48.401Z,48.00
2019-05-05T15:54:18.610Z,48.00
2019-05-05T15:57:01.834Z,47.70
2019-05-05T15:59:20.940Z,47.30
2019-05-05T16:01:51.467Z,48.10
2019-05-05T16:04:23.443Z,47.50
2019-05-05T16:06:54.985Z,48.10
2019-05-05T16:09:25.613Z,47.70
2019-05-05T16:11:56.656Z,48.30
2019-05-05T16:14:27.364Z,49.00
2019-05-05T16:17:14.681Z,51.10
2019-05-05T16:20:07.225Z,52.10
2019-05-05T16:23:05.799Z,52.40
2019-05-05T16:25:35.920Z,52.60
2019-05-05T16:30:36.090Z,53.10
2019-05-05T16:33:06.137Z,53.20
2019-05-05T16:35:36.563Z,52.10
2019-05-05T16:40:36.603Z,49.40
2019-05-05T16:43:07.101Z,48.90
2019-05-05T16:45:38.151Z,49.10
2019-05-05T16:48:08.816Z,49.20
2019-05-05T16:50:39.676Z,50.20
2019-05-05T16:53:11.608Z,50.80
2019-05-05T16:55:53.743Z,51.00
2019-05-05T16:58:24.109Z,51.00
2019-05-05T17:00:54.770Z,50.90
2019-05-05T17:03:25.276Z,50.70
2019-05-05T17:05:58.088Z,50.90
2019-05-05T17:08:27.670Z,51.60
2019-05-05T17:10:57.764Z,52.40
2019-05-05T17:13:34.793Z,51.30
2019-05-05T17:16:22.410Z,51.40
2019-05-05T17:19:14.017Z,51.30
2019-05-05T17:22:01.588Z,52.40
2019-05-05T17:24:32.149Z,51.20
2019-05-05T17:27:03.574Z,51.90
2019-05-05T17:29:34.548Z,53.90
2019-05-05T17:32:04.938Z,54.10
2019-05-05T17:34:35.501Z,55.40
2019-05-05T17:37:05.777Z,55.60
2019-05-05T17:39:39.798Z,60.30
2019-05-05T17:45:17.067Z,66.50
2019-05-05T17:47:55.994Z,68.50
2019-05-05T17:50:45.453Z,68.80
2019-05-05T17:53:34.502Z,68.10
2019-05-05T17:56:06.055Z,69.10
2019-05-05T17:58:37.455Z,70.10
2019-05-05T18:01:09.691Z,71.40
2019-05-05T18:03:39.886Z,71.10
2019-05-05T18:06:18.266Z,72.30
2019-05-05T18:08:53.781Z,71.10
2019-05-05T18:11:28.952Z,71.00
2019-05-05T18:14:03.948Z,71.20
2019-05-05T18:16:34.163Z,71.40
2019-05-05T18:19:04.641Z,72.00
2019-05-05T18:21:34.916Z,73.30
2019-05-05T18:26:34.580Z,74.20
2019-05-05T18:29:05.232Z,73.40
2019-05-05T18:31:35.416Z,72.50
2019-05-05T18:34:05.463Z,73.70
2019-05-05T18:36:35.919Z,75.50
2019-05-05T18:39:07.864Z,75.70
2019-05-05T18:41:46.886Z,76.10
2019-05-05T18:44:21.266Z,75.00
2019-05-05T18:47:29.365Z,75.40
2019-05-05T18:49:59.701Z,76.10
2019-05-05T18:52:30.338Z,76.40
2019-05-05T18:55:00.504Z,76.20
2019-05-05T18:57:31.485Z,76.30
2019-05-05T19:00:03.646Z,76.90
2019-05-05T19:02:57.916Z,77.10
2019-05-05T19:05:35.226Z,77.80
2019-05-05T19:08:15.391Z,78.20
2019-05-05T19:10:45.634Z,78.40
2019-05-05T19:13:15.819Z,78.60
2019-05-05T19:15:46.220Z,76.90
2019-05-05T19:18:16.408Z,77.60
2019-05-05T19:20:55.631Z,77.60
2019-05-05T19:23:25.963Z,77.50
2019-05-05T19:25:56.257Z,77.80
2019-05-05T19:28:26.529Z,78.00
2019-05-05T19:30:56.751Z,77.90
2019-05-05T19:33:26.986Z,77.80
2019-05-05T19:35:57.346Z,74.90
2019-05-05T19:38:28.066Z,75.00
2019-05-05T19:40:58.887Z,74.10
2019-05-05T19:43:29.139Z,75.70
2019-05-05T19:45:59.516Z,76.30
2019-05-05T19:48:30.759Z,75.50
2019-05-05T19:51:04.762Z,76.20
2019-05-05T19:53:35.598Z,76.70
2019-05-05T19:56:05.826Z,77.20
2019-05-05T19:58:37.467Z,77.50
2019-05-05T20:03:39.016Z,78.10
2019-05-05T20:06:09.327Z,77.70
2019-05-05T20:08:41.424Z,78.20
2019-05-05T20:11:14.170Z,77.60
2019-05-05T20:13:44.555Z,77.40
2019-05-05T20:16:51.994Z,77.70
2019-05-05T20:19:22.323Z,77.70
2019-05-05T20:21:54.375Z,79.10
2019-05-05T20:24:25.264Z,78.00
2019-05-05T20:26:55.517Z,78.10
2019-05-05T20:29:25.867Z,77.20
2019-05-05T20:31:56.709Z,75.90
2019-05-05T20:34:35.336Z,75.50
2019-05-05T20:39:44.468Z,75.40
2019-05-05T20:42:15.621Z,76.20
2019-05-05T20:44:45.983Z,76.60
2019-05-05T20:47:16.104Z,76.90
2019-05-05T20:49:46.584Z,76.20
2019-05-05T20:52:16.946Z,76.30
2019-05-05T20:54:47.040Z,75.90
2019-05-05T20:57:17.487Z,76.10
2019-05-05T20:59:48.309Z,78.40
2019-05-05T21:02:18.823Z,77.50
2019-05-05T21:04:48.915Z,77.80
2019-05-05T21:07:23.524Z,78.00
2019-05-05T21:12:21.677Z,78.40
2019-05-05T21:14:53.761Z,78.50
2019-05-05T21:17:24.325Z,78.40
2019-05-05T21:19:55.311Z,79.80
2019-05-05T21:22:44.388Z,78.80
2019-05-05T21:25:33.600Z,78.80
2019-05-05T21:28:03.883Z,79.30
2019-05-05T21:30:35.330Z,81.70
2019-05-05T21:33:05.551Z,81.10
2019-05-05T21:35:35.878Z,81.30
2019-05-05T21:38:05.949Z,81.30
2019-05-05T21:40:36.399Z,81.10
2019-05-05T21:43:06.498Z,81.90
2019-05-05T21:45:37.464Z,82.60
2019-05-05T21:48:07.520Z,83.00
2019-05-05T21:50:42.844Z,84.90
2019-05-05T21:53:21.532Z,83.10
2019-05-05T21:56:19.945Z,83.30
2019-05-05T21:58:50.015Z,83.70
2019-05-05T22:01:21.871Z,84.50
2019-05-05T22:03:54.410Z,84.80
2019-05-05T22:06:25.371Z,85.10
2019-05-05T22:08:55.559Z,85.80
2019-05-05T22:11:25.809Z,86.60
2019-05-05T22:13:55.978Z,86.80
2019-05-05T22:16:26.118Z,86.70
2019-05-05T22:18:56.686Z,87.50
2019-05-05T22:21:35.911Z,88.10
2019-05-05T22:24:16.307Z,86.30
2019-05-05T22:26:47.107Z,86.80
2019-05-05T22:29:17.935Z,87.30
2019-05-05T22:31:48.570Z,87.00
2019-05-05T22:34:19.144Z,87.30
2019-05-05T22:36:49.868Z,87.30
2019-05-05T22:39:21.190Z,87.30
2019-05-05T22:41:54.131Z,87.50
2019-05-05T22:44:24.427Z,87.70
2019-05-05T22:46:54.672Z,87.80
2019-05-05T22:49:24.941Z,88.30
2019-05-05T22:51:55.464Z,88.60
2019-05-05T22:54:25.883Z,88.60
2019-05-05T22:56:55.971Z,88.80
2019-05-05T22:59:26.729Z,88.70
2019-05-05T23:01:57.528Z,88.50
2019-05-05T23:04:44.066Z,89.00
2019-05-05T23:07:24.072Z,88.70
2019-05-05T23:12:25.502Z,90.00
2019-05-05T23:14:56.611Z,89.00
2019-05-05T23:17:54.871Z,89.00
2019-05-05T23:21:07.469Z,89.30
2019-05-05T23:23:59.562Z,89.30
2019-05-05T23:26:31.607Z,89.50
2019-05-05T23:29:02.246Z,89.60
2019-05-05T23:31:33.583Z,89.90
2019-05-05T23:34:04.079Z,89.30
2019-05-05T23:36:34.218Z,89.40
2019-05-05T23:39:06.553Z,89.40
2019-05-05T23:41:37.011Z,89.30
2019-05-05T23:44:07.304Z,89.50
2019-05-05T23:46:37.392Z,89.30
2019-05-05T23:49:07.831Z,89.00
2019-05-05T23:51:37.928Z,88.90
2019-05-05T23:54:08.915Z,88.30
2019-05-05T23:56:39.155Z,88.60
2019-05-05T23:59:13.552Z,89.40
